createdAt,value
2023-05-18T00:01:14.804Z,9.00
2023-05-18T00:03:43.069Z,9.10
2023-05-18T00:06:11.055Z,9.10
2023-05-18T00:08:39.389Z,9.00
2023-05-18T00:11:08.575Z,9.10
2023-05-18T00:13:36.454Z,8.90
2023-05-18T00:16:04.433Z,9.10
2023-05-18T00:18:34.205Z,9.00
2023-05-18T00:21:02.322Z,9.00
2023-05-18T00:23:32.745Z,9.00
2023-05-18T00:26:01.320Z,8.80
2023-05-18T00:28:30.634Z,8.80
2023-05-18T00:31:00.400Z,8.60
2023-05-18T00:33:28.223Z,8.40
2023-05-18T00:35:57.287Z,8.30
2023-05-18T00:38:25.108Z,8.30
2023-05-18T00:40:52.934Z,8.30
2023-05-18T00:43:21.260Z,8.30
2023-05-18T00:45:50.479Z,8.30
2023-05-18T00:48:18.396Z,8.30
2023-05-18T00:50:46.733Z,8.40
2023-05-18T00:53:14.616Z,8.20
2023-05-18T00:55:42.599Z,8.20
2023-05-18T00:58:10.818Z,8.20
2023-05-18T01:00:40.690Z,8.10
2023-05-18T01:03:12.010Z,8.10
2023-05-18T01:05:40.005Z,8.10
2023-05-18T01:08:08.601Z,8.00
2023-05-18T01:10:39.126Z,7.90
2023-05-18T01:13:13.981Z,7.80
2023-05-18T01:15:42.824Z,7.80
2023-05-18T01:18:16.403Z,7.90
2023-05-18T01:20:48.174Z,7.80
2023-05-18T01:23:42.884Z,7.90
2023-05-18T01:26:25.141Z,7.90
2023-05-18T01:28:54.584Z,7.90
2023-05-18T01:31:22.478Z,8.00
2023-05-18T01:33:50.520Z,8.10
2023-05-18T01:36:18.397Z,8.20
2023-05-18T01:38:46.449Z,8.20
2023-05-18T01:41:20.131Z,8.20
2023-05-18T01:43:54.445Z,8.20
2023-05-18T01:46:41.328Z,8.20
2023-05-18T01:49:17.705Z,8.20
2023-05-18T01:51:47.324Z,8.20
2023-05-18T01:54:18.698Z,8.20
2023-05-18T01:56:49.672Z,8.10
2023-05-18T01:59:18.797Z,8.00
2023-05-18T02:01:46.609Z,7.90
2023-05-18T02:04:14.570Z,8.00
2023-05-18T02:06:42.560Z,8.10
2023-05-18T02:09:10.403Z,8.10
2023-05-18T02:11:38.199Z,8.10
2023-05-18T02:14:07.348Z,8.00
2023-05-18T02:16:35.184Z,8.10
2023-05-18T02:19:03.381Z,8.00
2023-05-18T02:21:31.534Z,7.90
2023-05-18T02:23:59.349Z,7.90
2023-05-18T02:26:27.413Z,7.90
2023-05-18T02:28:55.388Z,8.00
2023-05-18T02:31:24.595Z,7.80
2023-05-18T02:33:52.453Z,7.70
2023-05-18T02:36:22.674Z,7.80
2023-05-18T02:38:50.612Z,7.60
2023-05-18T02:41:18.458Z,7.30
2023-05-18T02:43:46.251Z,7.20
2023-05-18T02:46:14.189Z,7.00
2023-05-18T02:48:45.753Z,6.80
2023-05-18T02:51:13.650Z,6.70
2023-05-18T02:53:44.116Z,7.20
2023-05-18T02:56:12.310Z,7.10
2023-05-18T02:58:40.389Z,6.90
2023-05-18T03:01:08.607Z,6.80
2023-05-18T03:03:36.824Z,6.60
2023-05-18T03:06:08.183Z,6.40
2023-05-18T03:08:37.154Z,6.20
2023-05-18T03:11:05.362Z,6.00
2023-05-18T03:13:33.176Z,6.10
2023-05-18T03:16:00.948Z,6.30
2023-05-18T03:18:28.757Z,6.20
2023-05-18T03:21:01.918Z,6.00
2023-05-18T03:23:31.354Z,6.00
2023-05-18T03:25:59.165Z,5.90
2023-05-18T03:28:26.977Z,5.80
2023-05-18T03:30:54.847Z,5.90
2023-05-18T03:33:22.943Z,5.80
2023-05-18T03:35:52.386Z,5.70
2023-05-18T03:38:20.657Z,5.70
2023-05-18T03:40:50.072Z,5.70
2023-05-18T03:43:17.911Z,5.60
2023-05-18T03:45:45.775Z,5.70
2023-05-18T03:48:13.706Z,5.80
2023-05-18T03:50:41.715Z,5.80
2023-05-18T03:53:09.527Z,5.70
2023-05-18T03:55:37.319Z,5.60
2023-05-18T03:58:06.449Z,5.50
2023-05-18T04:00:34.269Z,5.60
2023-05-18T04:03:03.320Z,5.60
2023-05-18T04:05:31.483Z,5.40
2023-05-18T04:07:59.517Z,5.80
2023-05-18T04:10:27.425Z,5.70
2023-05-18T04:12:55.406Z,5.60
2023-05-18T04:15:24.793Z,5.50
2023-05-18T04:17:53.750Z,5.50
2023-05-18T04:20:21.719Z,5.50
2023-05-18T04:22:50.129Z,5.50
2023-05-18T04:25:18.713Z,5.50
2023-05-18T04:27:47.848Z,5.70
2023-05-18T04:30:18.836Z,5.80
2023-05-18T04:32:48.243Z,5.90
2023-05-18T04:35:16.783Z,6.00
2023-05-18T04:37:44.648Z,6.00
2023-05-18T04:40:14.182Z,6.10
2023-05-18T04:42:45.310Z,6.10
2023-05-18T04:45:15.869Z,6.20
2023-05-18T04:47:46.386Z,6.30
2023-05-18T04:50:17.268Z,6.30
2023-05-18T04:52:48.656Z,6.40
2023-05-18T04:55:22.783Z,6.40
2023-05-18T04:57:50.880Z,6.40
2023-05-18T05:00:19.785Z,6.50
2023-05-18T05:02:47.746Z,6.40
2023-05-18T05:05:16.928Z,6.60
2023-05-18T05:07:44.737Z,6.70
2023-05-18T05:10:12.646Z,6.90
2023-05-18T05:12:40.534Z,7.10
2023-05-18T05:15:09.779Z,7.10
2023-05-18T05:17:37.972Z,7.30
2023-05-18T05:20:06.824Z,7.30
2023-05-18T05:22:36.084Z,7.40
2023-05-18T05:25:06.057Z,7.50
2023-05-18T05:27:34.288Z,7.50
2023-05-18T05:30:02.158Z,7.60
2023-05-18T05:32:30.113Z,7.60
2023-05-18T05:34:57.965Z,7.70
2023-05-18T05:37:25.808Z,7.70
2023-05-18T05:39:54.973Z,7.70
2023-05-18T05:42:22.856Z,7.80
2023-05-18T05:44:50.664Z,7.80
2023-05-18T05:47:18.465Z,7.90
2023-05-18T05:49:46.264Z,8.00
2023-05-18T05:52:14.124Z,8.10
2023-05-18T05:54:42.508Z,8.20
2023-05-18T05:57:11.666Z,8.30
2023-05-18T05:59:39.584Z,8.30
2023-05-18T06:02:08.198Z,8.40
2023-05-18T06:04:36.170Z,8.60
2023-05-18T06:07:04.221Z,8.60
2023-05-18T06:09:32.104Z,8.70
2023-05-18T06:11:59.942Z,8.70
2023-05-18T06:14:29.077Z,8.80
2023-05-18T06:16:57.001Z,8.90
2023-05-18T06:19:25.170Z,8.80
2023-05-18T06:21:53.149Z,9.00
2023-05-18T06:24:20.967Z,9.00
2023-05-18T06:26:48.782Z,9.00
2023-05-18T06:29:16.615Z,9.10
2023-05-18T06:31:45.969Z,9.10
2023-05-18T06:34:13.846Z,9.20
2023-05-18T06:36:41.669Z,9.30
2023-05-18T06:39:09.753Z,9.50
2023-05-18T06:41:37.620Z,9.50
2023-05-18T06:44:05.786Z,9.60
2023-05-18T06:46:33.782Z,9.80
2023-05-18T06:49:03.012Z,10.00
2023-05-18T06:51:31.199Z,10.10
2023-05-18T06:53:59.079Z,10.30
2023-05-18T06:56:26.970Z,10.40
2023-05-18T06:58:55.127Z,10.60
2023-05-18T07:01:23.845Z,10.80
2023-05-18T07:03:52.088Z,11.00
2023-05-18T07:06:21.842Z,11.20
2023-05-18T07:08:49.716Z,11.30
2023-05-18T07:11:17.763Z,11.40
2023-05-18T07:13:45.615Z,11.60
2023-05-18T07:16:13.509Z,11.60
2023-05-18T07:18:42.146Z,11.70
2023-05-18T07:21:10.236Z,11.80
2023-05-18T07:23:39.418Z,12.00
2023-05-18T07:26:10.058Z,12.00
2023-05-18T07:28:37.910Z,12.20
2023-05-18T07:31:06.558Z,12.30
2023-05-18T07:33:34.464Z,12.50
2023-05-18T07:36:02.309Z,12.70
2023-05-18T07:38:30.210Z,12.90
2023-05-18T07:41:00.445Z,13.10
2023-05-18T07:43:28.331Z,13.40
2023-05-18T07:45:56.165Z,13.60
2023-05-18T07:48:24.040Z,13.60
2023-05-18T07:50:52.032Z,13.60
2023-05-18T07:53:19.868Z,13.70
2023-05-18T07:55:47.809Z,13.90
2023-05-18T07:58:16.970Z,14.10
2023-05-18T08:00:45.257Z,14.30
2023-05-18T08:03:13.183Z,14.50
2023-05-18T08:05:41.940Z,14.80
2023-05-18T08:08:11.862Z,15.10
2023-05-18T08:10:39.756Z,15.40
2023-05-18T08:13:07.615Z,15.80
2023-05-18T08:15:38.771Z,15.90
2023-05-18T08:18:06.632Z,16.30
2023-05-18T08:20:34.650Z,16.50
2023-05-18T08:23:02.463Z,16.70
2023-05-18T08:25:30.556Z,16.90
2023-05-18T08:27:58.604Z,17.10
2023-05-18T08:30:26.858Z,17.20
2023-05-18T08:32:56.830Z,17.60
2023-05-18T08:35:24.960Z,17.70
2023-05-18T08:37:52.813Z,17.80
2023-05-18T08:40:21.352Z,18.00
2023-05-18T08:42:58.852Z,18.10
2023-05-18T08:45:33.938Z,18.50
2023-05-18T08:48:04.652Z,18.80
2023-05-18T08:50:33.762Z,19.00
2023-05-18T08:53:03.676Z,19.10
2023-05-18T08:55:34.715Z,19.40
2023-05-18T08:58:03.755Z,19.70
2023-05-18T09:00:33.491Z,19.80
2023-05-18T09:03:05.031Z,20.00
2023-05-18T09:05:33.598Z,20.10
2023-05-18T09:08:01.987Z,20.40
2023-05-18T09:10:30.066Z,20.40
2023-05-18T09:12:59.156Z,20.30
2023-05-18T09:15:28.015Z,20.00
2023-05-18T09:17:56.006Z,20.30
2023-05-18T09:20:27.545Z,20.70
2023-05-18T09:22:55.416Z,20.70
2023-05-18T09:25:25.654Z,21.10
2023-05-18T09:27:53.486Z,20.90
2023-05-18T09:30:21.408Z,21.00
2023-05-18T09:32:49.576Z,20.60
2023-05-18T09:35:18.016Z,20.50
2023-05-18T09:37:47.271Z,20.00
2023-05-18T09:40:16.633Z,19.80
2023-05-18T09:42:45.866Z,20.10
2023-05-18T09:45:19.290Z,20.20
2023-05-18T09:47:47.351Z,19.90
2023-05-18T09:50:15.198Z,19.40
2023-05-18T09:52:43.604Z,19.60
2023-05-18T09:55:13.223Z,19.50
2023-05-18T09:57:42.438Z,19.60
2023-05-18T10:00:11.966Z,19.30
2023-05-18T10:02:41.354Z,19.10
2023-05-18T10:05:20.158Z,19.00
2023-05-18T10:07:48.454Z,18.90
2023-05-18T10:10:21.152Z,18.80
2023-05-18T10:12:49.265Z,19.20
2023-05-18T10:15:19.589Z,19.20
2023-05-18T10:17:48.237Z,19.00
2023-05-18T10:20:19.354Z,19.10
2023-05-18T10:22:48.764Z,19.40
2023-05-18T10:25:22.065Z,20.00
2023-05-18T10:27:51.122Z,20.50
2023-05-18T10:30:19.127Z,20.70
2023-05-18T10:32:49.349Z,20.50
2023-05-18T10:35:17.922Z,20.70
2023-05-18T10:37:48.513Z,20.50
2023-05-18T10:40:18.181Z,20.70
2023-05-18T10:42:48.054Z,20.50
2023-05-18T10:45:17.093Z,19.90
2023-05-18T10:47:45.660Z,19.70
2023-05-18T10:50:15.089Z,19.40
2023-05-18T10:52:45.680Z,19.30
2023-05-18T10:55:13.949Z,19.60
2023-05-18T10:57:45.975Z,19.90
2023-05-18T11:00:16.047Z,20.20
2023-05-18T11:02:44.762Z,20.40
2023-05-18T11:05:13.564Z,20.30
2023-05-18T11:07:46.168Z,20.40
2023-05-18T11:10:15.446Z,20.50
2023-05-18T11:12:43.585Z,20.50
2023-05-18T11:15:12.037Z,20.40
2023-05-18T11:17:41.293Z,20.50
2023-05-18T11:20:13.755Z,20.80
2023-05-18T11:22:49.741Z,20.80
2023-05-18T11:25:44.024Z,20.70
2023-05-18T11:28:13.522Z,20.20
2023-05-18T11:30:52.054Z,20.00
2023-05-18T11:33:27.699Z,20.20
2023-05-18T11:35:57.156Z,20.20
2023-05-18T11:38:25.272Z,19.70
2023-05-18T11:40:53.137Z,19.70
2023-05-18T11:43:22.339Z,20.00
2023-05-18T11:45:59.306Z,19.80
2023-05-18T11:48:30.380Z,19.60
2023-05-18T11:50:58.587Z,19.50
2023-05-18T11:53:27.790Z,19.50
2023-05-18T11:55:56.525Z,19.20
2023-05-18T11:58:26.218Z,19.10
2023-05-18T12:00:55.838Z,19.20
2023-05-18T12:03:25.693Z,19.10
2023-05-18T12:05:58.664Z,19.20
2023-05-18T12:08:29.618Z,19.20
2023-05-18T12:10:58.138Z,19.30
2023-05-18T12:13:27.265Z,19.00
2023-05-18T12:15:59.004Z,19.00
2023-05-18T12:18:29.540Z,18.90
2023-05-18T12:20:58.787Z,18.80
2023-05-18T12:23:37.981Z,19.00
2023-05-18T12:26:05.906Z,18.80
2023-05-18T12:28:33.747Z,18.80
2023-05-18T12:31:07.232Z,18.70
2023-05-18T12:33:35.273Z,18.60
2023-05-18T12:36:04.778Z,18.40
2023-05-18T12:38:32.785Z,18.40
2023-05-18T12:41:00.630Z,18.40
2023-05-18T12:43:28.548Z,18.50
2023-05-18T12:45:56.420Z,18.60
2023-05-18T12:48:26.494Z,18.50
2023-05-18T12:50:55.544Z,18.40
2023-05-18T12:53:25.025Z,18.40
2023-05-18T12:55:59.453Z,18.30
2023-05-18T12:58:27.322Z,18.30
2023-05-18T13:00:55.166Z,18.30
2023-05-18T13:03:24.346Z,18.40
2023-05-18T13:06:03.878Z,18.40
2023-05-18T13:08:33.694Z,18.40
2023-05-18T13:11:12.797Z,18.30
2023-05-18T13:13:58.716Z,18.20
2023-05-18T13:16:26.913Z,18.20
2023-05-18T13:18:59.175Z,18.20
2023-05-18T13:21:27.558Z,18.20
2023-05-18T13:23:56.827Z,18.20
2023-05-18T13:26:26.090Z,18.10
2023-05-18T13:28:55.976Z,18.10
2023-05-18T13:31:25.141Z,18.10
2023-05-18T13:33:53.491Z,18.10
2023-05-18T13:36:21.901Z,18.00
2023-05-18T13:38:49.844Z,18.00
2023-05-18T13:41:19.057Z,18.00
2023-05-18T13:43:46.898Z,18.00
2023-05-18T13:46:14.974Z,18.00
2023-05-18T13:48:42.812Z,18.00
2023-05-18T13:51:10.702Z,17.90
2023-05-18T13:53:40.213Z,17.90
2023-05-18T13:56:08.874Z,17.80
2023-05-18T13:58:38.073Z,17.70
2023-05-18T14:01:08.449Z,17.60
2023-05-18T14:03:37.693Z,17.60
2023-05-18T14:06:05.878Z,17.70
2023-05-18T14:08:33.702Z,17.60
2023-05-18T14:11:01.539Z,17.50
2023-05-18T14:13:29.353Z,17.50
2023-05-18T14:15:58.540Z,17.50
2023-05-18T14:18:26.396Z,17.40
2023-05-18T14:20:54.355Z,17.50
2023-05-18T14:23:22.177Z,17.50
2023-05-18T14:25:50.037Z,17.50
2023-05-18T14:28:17.909Z,17.60
2023-05-18T14:30:45.844Z,17.60
2023-05-18T14:33:15.112Z,17.60
2023-05-18T14:35:42.941Z,17.60
2023-05-18T14:38:10.823Z,17.50
2023-05-18T14:40:38.672Z,17.50
2023-05-18T14:43:06.496Z,17.50
2023-05-18T14:45:34.333Z,17.40
2023-05-18T14:48:02.247Z,17.40
2023-05-18T14:50:31.683Z,17.50
2023-05-18T14:52:59.776Z,17.50
2023-05-18T14:55:27.990Z,17.60
2023-05-18T14:57:55.978Z,17.60
2023-05-18T15:00:24.062Z,17.60
2023-05-18T15:02:52.049Z,17.70
2023-05-18T15:05:19.957Z,17.70
2023-05-18T15:07:49.141Z,17.60
2023-05-18T15:10:16.964Z,17.60
2023-05-18T15:12:44.819Z,17.60
2023-05-18T15:15:12.911Z,17.60
2023-05-18T15:17:41.199Z,17.60
2023-05-18T15:20:10.006Z,17.60
2023-05-18T15:22:38.414Z,17.50
2023-05-18T15:25:09.225Z,17.50
2023-05-18T15:27:37.986Z,17.50
2023-05-18T15:30:11.246Z,17.40
2023-05-18T15:32:39.150Z,17.50
2023-05-18T15:35:08.104Z,17.40
2023-05-18T15:37:36.113Z,17.40
2023-05-18T15:40:04.111Z,17.30
2023-05-18T15:42:33.939Z,17.30
2023-05-18T15:45:02.981Z,17.30
2023-05-18T15:47:30.935Z,17.30
2023-05-18T15:49:58.848Z,17.30
2023-05-18T15:52:26.734Z,17.30
2023-05-18T15:54:54.617Z,17.30
2023-05-18T15:57:22.872Z,17.40
2023-05-18T15:59:52.044Z,17.40
2023-05-18T16:02:19.905Z,17.40
2023-05-18T16:04:47.798Z,17.40
2023-05-18T16:07:15.642Z,17.50
2023-05-18T16:09:43.476Z,17.50
2023-05-18T16:12:11.310Z,17.50
2023-05-18T16:14:39.122Z,17.40
2023-05-18T16:19:36.121Z,17.20
2023-05-18T16:22:03.964Z,17.20
2023-05-18T16:24:31.804Z,17.30
2023-05-18T16:26:59.628Z,17.20
2023-05-18T16:29:27.575Z,17.20
2023-05-18T16:31:56.351Z,17.20
2023-05-18T16:34:26.039Z,17.10
2023-05-18T16:36:53.869Z,16.90
2023-05-18T16:39:21.698Z,17.00
2023-05-18T16:41:49.526Z,17.00
2023-05-18T16:44:17.347Z,17.00
2023-05-18T16:46:45.263Z,16.90
2023-05-18T16:49:13.096Z,17.00
2023-05-18T16:51:42.407Z,17.00
2023-05-18T16:54:10.250Z,17.00
2023-05-18T16:56:38.194Z,16.90
2023-05-18T16:59:06.047Z,16.90
2023-05-18T17:01:34.022Z,16.90
2023-05-18T17:04:02.045Z,16.90
2023-05-18T17:06:29.996Z,16.90
2023-05-18T17:08:59.166Z,16.80
2023-05-18T17:11:28.139Z,16.70
2023-05-18T17:13:57.450Z,16.80
2023-05-18T17:16:26.687Z,16.80
2023-05-18T17:18:56.052Z,16.70
2023-05-18T17:21:26.498Z,16.70
2023-05-18T17:23:54.342Z,16.70
2023-05-18T17:26:25.356Z,16.70
2023-05-18T17:28:53.577Z,16.60
2023-05-18T17:31:21.406Z,16.60
2023-05-18T17:33:49.282Z,16.50
2023-05-18T17:36:18.170Z,16.50
2023-05-18T17:38:46.880Z,16.50
2023-05-18T17:41:14.915Z,16.40
2023-05-18T17:43:44.121Z,16.40
2023-05-18T17:46:11.983Z,16.30
2023-05-18T17:48:39.862Z,16.40
2023-05-18T17:51:08.124Z,16.30
2023-05-18T17:53:41.734Z,16.30
2023-05-18T17:56:10.112Z,16.40
2023-05-18T17:58:39.199Z,16.30
2023-05-18T18:01:08.741Z,16.30
2023-05-18T18:03:37.700Z,16.30
2023-05-18T18:06:06.382Z,16.20
2023-05-18T18:08:34.264Z,16.20
2023-05-18T18:11:02.134Z,16.20
2023-05-18T18:13:30.018Z,16.20
2023-05-18T18:15:57.905Z,16.10
2023-05-18T18:18:27.688Z,16.10
2023-05-18T18:20:55.489Z,16.10
2023-05-18T18:23:23.311Z,16.10
2023-05-18T18:25:51.249Z,16.10
2023-05-18T18:28:19.701Z,16.00
2023-05-18T18:30:47.635Z,16.00
2023-05-18T18:33:15.503Z,16.00
2023-05-18T18:35:44.734Z,16.00
2023-05-18T18:38:13.031Z,15.90
2023-05-18T18:40:41.532Z,15.90
2023-05-18T18:43:09.408Z,16.00
2023-05-18T18:45:37.324Z,15.90
2023-05-18T18:48:06.059Z,15.90
2023-05-18T18:50:33.909Z,15.90
2023-05-18T18:53:03.096Z,16.00
2023-05-18T18:55:31.269Z,15.90
2023-05-18T18:58:01.178Z,15.90
2023-05-18T19:00:29.111Z,15.80
2023-05-18T19:02:56.984Z,15.80
2023-05-18T19:05:25.131Z,15.70
2023-05-18T19:07:55.535Z,15.70
2023-05-18T19:10:25.445Z,15.70
2023-05-18T19:12:53.276Z,15.80
2023-05-18T19:15:22.228Z,15.70
2023-05-18T19:17:52.081Z,15.60
2023-05-18T19:20:20.855Z,15.60
2023-05-18T19:22:48.754Z,15.60
2023-05-18T19:25:16.660Z,15.60
2023-05-18T19:27:45.977Z,15.50
2023-05-18T19:30:20.925Z,15.40
2023-05-18T19:32:49.466Z,15.40
2023-05-18T19:35:19.622Z,15.40
2023-05-18T19:37:48.374Z,15.40
2023-05-18T19:40:16.556Z,15.30
2023-05-18T19:42:45.748Z,15.30
2023-05-18T19:45:13.649Z,15.30
2023-05-18T19:47:41.506Z,15.30
2023-05-18T19:50:10.359Z,15.40
2023-05-18T19:52:38.208Z,15.30
2023-05-18T19:55:06.975Z,15.20
2023-05-18T19:57:34.820Z,15.20
2023-05-18T20:00:05.663Z,15.30
2023-05-18T20:02:33.792Z,15.30
2023-05-18T20:05:01.790Z,15.30
2023-05-18T20:07:31.258Z,15.30
2023-05-18T20:09:59.227Z,15.30
2023-05-18T20:12:28.334Z,15.30
2023-05-18T20:14:56.669Z,15.20
2023-05-18T20:17:26.281Z,15.20
2023-05-18T20:19:54.342Z,15.20
2023-05-18T20:22:22.370Z,15.00
2023-05-18T20:24:50.707Z,15.00
2023-05-18T20:27:18.762Z,15.00
2023-05-18T20:29:47.144Z,14.90
2023-05-18T20:32:15.203Z,14.80
2023-05-18T20:34:45.371Z,14.80
2023-05-18T20:37:14.015Z,14.70
2023-05-18T20:39:50.350Z,14.80
2023-05-18T20:42:21.806Z,14.80
2023-05-18T20:44:51.289Z,14.70
2023-05-18T20:47:20.608Z,14.60
2023-05-18T20:49:50.719Z,14.60
2023-05-18T20:52:18.876Z,14.60
2023-05-18T20:54:47.229Z,14.60
2023-05-18T20:57:15.600Z,14.50
2023-05-18T20:59:43.896Z,14.50
2023-05-18T21:02:12.035Z,14.40
2023-05-18T21:04:40.172Z,14.30
2023-05-18T21:07:10.058Z,14.30
2023-05-18T21:09:38.166Z,14.20
2023-05-18T21:12:14.515Z,14.20
2023-05-18T21:14:51.814Z,14.10
2023-05-18T21:17:20.485Z,14.10
2023-05-18T21:19:49.675Z,14.20
2023-05-18T21:22:19.191Z,14.10
2023-05-18T21:24:47.361Z,14.10
2023-05-18T21:27:15.431Z,14.10
2023-05-18T21:29:43.534Z,14.10
2023-05-18T21:32:11.787Z,14.10
2023-05-18T21:34:42.711Z,14.10
2023-05-18T21:37:11.850Z,14.10
2023-05-18T21:39:42.009Z,14.10
2023-05-18T21:42:10.140Z,14.10
2023-05-18T21:44:38.154Z,14.10
2023-05-18T21:47:06.103Z,14.10
2023-05-18T21:49:33.919Z,14.10
2023-05-18T21:52:01.704Z,14.10
2023-05-18T21:54:32.677Z,14.00
2023-05-18T21:57:02.481Z,14.00
2023-05-18T21:59:30.327Z,14.00
2023-05-18T22:01:58.134Z,14.00
2023-05-18T22:04:26.218Z,14.00
2023-05-18T22:06:54.362Z,13.90
2023-05-18T22:09:22.415Z,13.90
2023-05-18T22:11:50.255Z,13.90
2023-05-18T22:14:19.512Z,13.90
2023-05-18T22:16:48.081Z,13.90
2023-05-18T22:19:16.004Z,13.80
2023-05-18T22:21:43.869Z,13.70
2023-05-18T22:24:11.677Z,13.70
2023-05-18T22:26:39.513Z,13.80
2023-05-18T22:29:07.303Z,13.80
2023-05-18T22:31:36.728Z,13.70
2023-05-18T22:34:04.614Z,13.70
2023-05-18T22:36:33.346Z,13.70
2023-05-18T22:39:01.168Z,13.70
2023-05-18T22:41:29.007Z,13.70
2023-05-18T22:43:56.870Z,13.70
2023-05-18T22:46:24.724Z,13.70
2023-05-18T22:48:54.364Z,13.70
2023-05-18T22:51:23.320Z,13.70
2023-05-18T22:53:51.269Z,13.70
2023-05-18T22:56:20.955Z,13.70
2023-05-18T22:58:48.758Z,13.80
2023-05-18T23:01:16.579Z,13.80
2023-05-18T23:03:44.449Z,13.80
2023-05-18T23:06:14.027Z,13.60
2023-05-18T23:08:42.177Z,13.50
2023-05-18T23:11:10.292Z,13.40
2023-05-18T23:13:38.377Z,13.30
2023-05-18T23:16:10.303Z,13.20
2023-05-18T23:18:38.785Z,13.20
2023-05-18T23:21:08.973Z,13.10
2023-05-18T23:23:38.166Z,13.10
2023-05-18T23:26:06.044Z,13.10
2023-05-18T23:28:33.821Z,13.00
2023-05-18T23:31:01.627Z,13.00
2023-05-18T23:33:30.054Z,13.00
2023-05-18T23:36:02.687Z,12.90
2023-05-18T23:38:34.734Z,12.90
2023-05-18T23:41:05.204Z,12.80
2023-05-18T23:43:33.763Z,12.80
2023-05-18T23:46:02.115Z,12.90
2023-05-18T23:48:31.034Z,12.90
2023-05-18T23:51:01.372Z,12.90
2023-05-18T23:53:30.411Z,12.70
2023-05-18T23:55:59.781Z,12.60
2023-05-18T23:58:31.672Z,12.60
